createdAt,value
2022-11-19T00:01:38.115Z,-2.47
2022-11-19T00:04:09.986Z,-2.41
2022-11-19T00:06:37.040Z,-2.43
2022-11-19T00:09:11.119Z,-2.50
2022-11-19T00:11:57.207Z,-2.61
2022-11-19T00:14:24.799Z,-2.61
2022-11-19T00:16:54.088Z,-2.75
2022-11-19T00:19:24.093Z,-2.93
2022-11-19T00:21:51.122Z,-2.99
2022-11-19T00:24:18.482Z,-3.00
2022-11-19T00:26:45.667Z,-3.00
2022-11-19T00:29:17.837Z,-2.96
2022-11-19T00:31:47.767Z,-2.77
2022-11-19T00:34:14.893Z,-2.65
2022-11-19T00:36:41.911Z,-2.61
2022-11-19T00:39:08.944Z,-3.04
2022-11-19T00:41:35.947Z,-3.16
2022-11-19T00:44:03.024Z,-3.31
2022-11-19T00:46:36.353Z,-2.95
2022-11-19T00:49:03.499Z,-2.75
2022-11-19T00:51:31.483Z,-2.71
2022-11-19T00:53:58.977Z,-2.63
2022-11-19T00:56:28.063Z,-2.52
2022-11-19T00:58:57.844Z,-2.48
2022-11-19T01:01:26.128Z,-2.47
2022-11-19T01:03:53.973Z,-2.79
2022-11-19T01:06:25.004Z,-2.45
2022-11-19T01:08:53.848Z,-2.53
2022-11-19T01:11:30.381Z,-2.38
2022-11-19T01:13:59.253Z,-2.26
2022-11-19T01:16:36.798Z,-2.24
2022-11-19T01:19:06.559Z,-2.24
2022-11-19T01:21:38.701Z,-2.53
2022-11-19T01:24:06.131Z,-2.33
2022-11-19T01:26:35.654Z,-2.32
2022-11-19T01:29:03.365Z,-2.75
2022-11-19T01:31:31.054Z,-2.81
2022-11-19T01:33:59.262Z,-2.54
2022-11-19T01:36:27.280Z,-2.54
2022-11-19T01:38:55.199Z,-2.44
2022-11-19T01:41:31.424Z,-2.37
2022-11-19T01:44:26.678Z,-2.49
2022-11-19T01:46:53.826Z,-2.67
2022-11-19T01:49:21.648Z,-2.80
2022-11-19T01:51:57.925Z,-3.12
2022-11-19T01:54:41.241Z,-3.08
2022-11-19T01:57:32.013Z,-3.09
2022-11-19T02:00:01.482Z,-2.98
2022-11-19T02:02:32.139Z,-3.01
2022-11-19T02:05:01.840Z,-3.22
2022-11-19T02:07:33.889Z,-3.31
2022-11-19T02:10:05.033Z,-3.56
2022-11-19T02:13:03.271Z,-3.19
2022-11-19T02:15:49.271Z,-3.19
2022-11-19T02:18:31.218Z,-3.27
2022-11-19T02:21:23.195Z,-3.34
2022-11-19T02:24:18.222Z,-3.32
2022-11-19T02:27:07.391Z,-3.52
2022-11-19T02:29:53.401Z,-3.49
2022-11-19T02:32:38.469Z,-3.43
2022-11-19T02:35:17.426Z,-3.19
2022-11-19T02:38:12.126Z,-3.36
2022-11-19T02:40:47.055Z,-3.13
2022-11-19T02:43:25.504Z,-2.94
2022-11-19T02:46:15.312Z,-2.99
2022-11-19T02:48:53.820Z,-2.76
2022-11-19T02:51:21.312Z,-2.95
2022-11-19T02:53:48.806Z,-2.86
2022-11-19T02:56:51.893Z,-2.72
2022-11-19T03:00:01.965Z,-2.70
2022-11-19T03:02:57.832Z,-2.70
2022-11-19T03:05:30.789Z,-2.55
2022-11-19T03:07:58.412Z,-2.51
2022-11-19T03:10:51.724Z,-2.62
2022-11-19T03:13:46.573Z,-2.54
2022-11-19T03:16:45.132Z,-2.52
2022-11-19T03:19:42.916Z,-2.72
2022-11-19T03:22:22.144Z,-2.70
2022-11-19T03:25:21.436Z,-2.65
2022-11-19T03:27:54.661Z,-2.39
2022-11-19T03:30:21.768Z,-2.22
2022-11-19T03:33:12.499Z,-2.51
2022-11-19T03:36:14.529Z,-2.46
2022-11-19T03:38:47.866Z,-2.42
2022-11-19T03:41:18.352Z,-2.41
2022-11-19T03:43:54.123Z,-2.20
2022-11-19T03:46:23.542Z,-2.24
2022-11-19T03:48:54.430Z,-2.25
2022-11-19T03:51:53.379Z,-2.26
2022-11-19T03:54:20.737Z,-2.17
2022-11-19T03:56:49.929Z,-2.31
2022-11-19T03:59:19.974Z,-2.10
2022-11-19T04:01:52.620Z,-2.32
2022-11-19T04:04:38.236Z,-2.24
2022-11-19T04:07:08.009Z,-2.11
2022-11-19T04:09:39.086Z,-2.05
2022-11-19T04:12:26.328Z,-2.00
2022-11-19T04:14:53.649Z,-2.09
2022-11-19T04:17:21.081Z,-1.89
2022-11-19T04:19:48.365Z,-1.84
2022-11-19T04:22:15.518Z,-2.06
2022-11-19T04:24:42.515Z,-1.97
2022-11-19T04:27:09.781Z,-1.78
2022-11-19T04:29:36.844Z,-1.82
2022-11-19T04:32:04.176Z,-2.07
2022-11-19T04:34:31.248Z,-2.12
2022-11-19T04:36:58.322Z,-2.22
2022-11-19T04:39:25.320Z,-2.02
2022-11-19T04:41:52.473Z,-1.79
2022-11-19T04:44:19.512Z,-2.03
2022-11-19T04:46:46.625Z,-1.83
2022-11-19T04:49:13.763Z,-1.70
2022-11-19T04:51:42.252Z,-1.89
2022-11-19T04:54:09.754Z,-2.20
2022-11-19T04:56:37.595Z,-1.74
2022-11-19T04:59:05.233Z,-2.61
2022-11-19T05:01:34.960Z,-2.50
2022-11-19T05:04:02.143Z,-2.76
2022-11-19T05:06:29.179Z,-2.96
2022-11-19T05:08:56.247Z,-2.86
2022-11-19T05:11:23.250Z,-2.64
2022-11-19T05:13:50.288Z,-2.21
2022-11-19T05:16:17.527Z,-2.84
2022-11-19T05:18:45.691Z,-2.71
2022-11-19T05:21:15.220Z,-2.35
2022-11-19T05:23:46.165Z,-2.47
2022-11-19T05:26:13.217Z,-2.64
2022-11-19T05:28:40.386Z,-3.04
2022-11-19T05:31:10.073Z,-2.82
2022-11-19T05:33:37.183Z,-3.11
2022-11-19T05:36:04.837Z,-2.69
2022-11-19T05:38:31.854Z,-2.63
2022-11-19T05:40:59.075Z,-2.70
2022-11-19T05:43:26.125Z,-2.66
2022-11-19T05:45:53.139Z,-2.25
2022-11-19T05:48:20.169Z,-2.28
2022-11-19T05:50:47.407Z,-2.28
2022-11-19T05:53:14.449Z,-2.59
2022-11-19T05:55:41.475Z,-2.61
2022-11-19T05:58:08.615Z,-2.58
2022-11-19T06:00:35.984Z,-1.99
2022-11-19T06:03:04.163Z,-1.78
2022-11-19T06:05:34.731Z,-1.74
2022-11-19T06:08:08.709Z,-1.72
2022-11-19T06:10:35.789Z,-1.58
2022-11-19T06:13:03.528Z,-1.35
2022-11-19T06:15:30.631Z,-1.53
2022-11-19T06:17:57.969Z,-2.00
2022-11-19T06:20:25.025Z,-1.70
2022-11-19T06:22:52.453Z,-1.45
2022-11-19T06:25:20.358Z,-1.39
2022-11-19T06:27:50.375Z,-1.19
2022-11-19T06:30:17.720Z,-1.48
2022-11-19T06:32:44.863Z,-1.90
2022-11-19T06:35:14.269Z,-2.01
2022-11-19T06:37:44.072Z,-1.50
2022-11-19T06:40:12.196Z,-1.37
2022-11-19T06:42:39.461Z,-1.30
2022-11-19T06:45:13.576Z,-1.87
2022-11-19T06:47:49.742Z,-1.57
2022-11-19T06:50:18.115Z,-1.76
2022-11-19T06:52:45.479Z,-1.66
2022-11-19T06:55:13.541Z,-1.57
2022-11-19T06:57:42.945Z,-1.32
2022-11-19T07:00:11.181Z,-1.10
2022-11-19T07:02:38.185Z,-1.16
2022-11-19T07:05:06.191Z,-1.84
2022-11-19T07:07:36.260Z,-1.30
2022-11-19T07:10:06.061Z,-1.20
2022-11-19T07:12:33.124Z,-0.80
2022-11-19T07:15:04.226Z,-0.70
2022-11-19T07:17:32.257Z,-0.84
2022-11-19T07:19:59.625Z,-0.96
2022-11-19T07:22:29.158Z,-0.80
2022-11-19T07:24:56.345Z,-0.61
2022-11-19T07:27:23.652Z,-0.57
2022-11-19T07:29:53.284Z,-0.91
2022-11-19T07:32:20.346Z,-0.92
2022-11-19T07:34:50.095Z,-1.56
2022-11-19T07:37:18.627Z,-1.20
2022-11-19T07:39:47.043Z,-1.32
2022-11-19T07:42:33.437Z,-1.00
2022-11-19T07:45:00.550Z,-0.74
2022-11-19T07:47:27.695Z,-1.09
2022-11-19T07:49:57.510Z,-0.91
2022-11-19T07:52:24.802Z,-0.95
2022-11-19T07:54:51.985Z,-1.44
2022-11-19T07:57:24.608Z,-1.19
2022-11-19T07:59:54.616Z,-0.71
2022-11-19T08:02:21.841Z,-0.32
2022-11-19T08:04:48.932Z,-0.69
2022-11-19T08:07:16.159Z,-0.44
2022-11-19T08:09:43.637Z,-0.60
2022-11-19T08:12:10.878Z,-0.55
2022-11-19T08:14:38.354Z,-1.31
2022-11-19T08:17:24.260Z,-1.16
2022-11-19T08:19:51.264Z,-0.74
2022-11-19T08:22:20.588Z,-0.68
2022-11-19T08:24:47.786Z,-0.53
2022-11-19T08:27:15.156Z,-0.38
2022-11-19T08:29:42.361Z,-0.65
2022-11-19T08:32:09.409Z,-0.55
2022-11-19T08:34:36.777Z,-0.75
2022-11-19T08:37:03.884Z,-0.62
2022-11-19T08:39:32.095Z,-0.35
2022-11-19T08:42:18.054Z,-0.06
2022-11-19T08:44:45.162Z,-0.47
2022-11-19T08:47:12.255Z,-0.43
2022-11-19T08:49:39.304Z,-0.60
2022-11-19T08:52:07.024Z,-0.54
2022-11-19T08:54:34.200Z,-0.39
2022-11-19T08:57:01.322Z,-0.09
2022-11-19T08:59:30.851Z,-0.41
2022-11-19T09:01:57.924Z,-0.03
2022-11-19T09:04:24.983Z,-0.16
2022-11-19T09:06:54.592Z,0.10
2022-11-19T09:09:21.689Z,0.24
2022-11-19T09:11:48.886Z,-0.30
2022-11-19T09:14:20.622Z,-0.84
2022-11-19T09:16:48.020Z,-0.71
2022-11-19T09:19:15.131Z,-0.60
2022-11-19T09:21:42.177Z,-0.17
2022-11-19T09:24:09.162Z,-0.39
2022-11-19T09:26:36.288Z,-0.21
2022-11-19T09:29:03.502Z,-0.01
2022-11-19T09:31:30.646Z,-0.03
2022-11-19T09:34:00.662Z,0.08
2022-11-19T09:36:27.875Z,-0.28
2022-11-19T09:38:58.481Z,-0.55
2022-11-19T09:41:55.230Z,-0.19
2022-11-19T09:44:31.065Z,-0.37
2022-11-19T09:47:09.733Z,-0.16
2022-11-19T09:50:16.891Z,-0.07
2022-11-19T09:52:56.959Z,-0.34
2022-11-19T09:55:34.611Z,-0.49
2022-11-19T09:58:07.498Z,-0.42
2022-11-19T10:00:34.796Z,-0.53
2022-11-19T10:03:13.554Z,-0.64
2022-11-19T10:06:15.483Z,-0.76
2022-11-19T10:09:03.225Z,-0.99
2022-11-19T10:11:45.128Z,-0.89
2022-11-19T10:14:21.007Z,-0.58
2022-11-19T10:17:12.709Z,-0.85
2022-11-19T10:20:30.664Z,-0.65
2022-11-19T10:23:25.919Z,-0.44
2022-11-19T10:26:05.106Z,-0.37
2022-11-19T10:28:38.480Z,-0.72
2022-11-19T10:31:38.186Z,-0.67
2022-11-19T10:34:31.706Z,-0.33
2022-11-19T10:37:15.155Z,-0.81
2022-11-19T10:39:55.172Z,-0.57
2022-11-19T10:42:38.599Z,-1.19
2022-11-19T10:45:27.697Z,-0.67
2022-11-19T10:48:09.587Z,-0.88
2022-11-19T10:50:39.780Z,-0.75
2022-11-19T10:53:38.721Z,-0.88
2022-11-19T10:56:20.185Z,-0.96
2022-11-19T10:59:12.505Z,-0.73
2022-11-19T11:01:44.685Z,-0.68
2022-11-19T11:04:28.451Z,-0.67
2022-11-19T11:06:57.737Z,-0.77
2022-11-19T11:09:40.960Z,-0.91
2022-11-19T11:12:44.235Z,-0.76
2022-11-19T11:15:18.858Z,-1.04
2022-11-19T11:17:47.653Z,-0.93
2022-11-19T11:20:20.152Z,-0.74
2022-11-19T11:23:03.229Z,-0.78
2022-11-19T11:25:32.941Z,-1.10
2022-11-19T11:28:18.348Z,-1.14
2022-11-19T11:30:59.283Z,-0.74
2022-11-19T11:33:36.017Z,-1.26
2022-11-19T11:36:16.339Z,-0.85
2022-11-19T11:38:49.241Z,-0.89
2022-11-19T11:42:03.453Z,-0.51
2022-11-19T11:44:17.799Z,-0.47
2022-11-19T11:46:54.808Z,-0.94
2022-11-19T11:49:46.670Z,-0.93
2022-11-19T11:52:52.103Z,-0.35
2022-11-19T11:55:25.070Z,-0.84
2022-11-19T11:58:05.396Z,-0.92
2022-11-19T12:00:46.209Z,-0.99
2022-11-19T12:03:21.001Z,-1.15
2022-11-19T12:06:15.513Z,-0.98
2022-11-19T12:09:01.325Z,-0.97
2022-11-19T12:11:55.497Z,-1.59
2022-11-19T12:14:42.529Z,-1.42
2022-11-19T12:17:43.166Z,-1.39
2022-11-19T12:20:40.700Z,-1.41
2022-11-19T12:23:38.268Z,-1.38
2022-11-19T12:26:45.171Z,-0.71
2022-11-19T12:29:39.829Z,-0.59
2022-11-19T12:32:16.050Z,-1.40
2022-11-19T12:35:00.513Z,-1.28
2022-11-19T12:38:01.813Z,-1.62
2022-11-19T12:41:10.073Z,-1.28
2022-11-19T12:44:00.062Z,-1.18
2022-11-19T12:46:50.321Z,-1.39
2022-11-19T12:49:43.698Z,-1.34
2022-11-19T12:52:54.469Z,-1.28
2022-11-19T12:55:35.155Z,-1.09
2022-11-19T12:58:52.553Z,-1.22
2022-11-19T13:01:26.740Z,-0.90
2022-11-19T13:04:37.671Z,-1.17
2022-11-19T13:07:45.624Z,-1.31
2022-11-19T13:10:16.925Z,-1.67
2022-11-19T13:12:50.641Z,-1.20
2022-11-19T13:15:58.926Z,-1.21
2022-11-19T13:18:32.961Z,-1.31
2022-11-19T13:21:28.792Z,-1.39
2022-11-19T13:23:56.721Z,-1.31
2022-11-19T13:26:32.065Z,-1.19
2022-11-19T13:29:25.326Z,-1.24
2022-11-19T13:32:01.563Z,-1.56
2022-11-19T13:35:00.404Z,-1.32
2022-11-19T13:37:58.301Z,-0.97
2022-11-19T13:40:40.247Z,-1.22
2022-11-19T13:43:33.332Z,-0.99
2022-11-19T13:46:20.641Z,-0.92
2022-11-19T13:49:26.786Z,-0.96
2022-11-19T13:52:00.937Z,-1.25
2022-11-19T13:54:35.483Z,-0.71
2022-11-19T13:57:04.179Z,-1.06
2022-11-19T13:59:47.687Z,-1.02
2022-11-19T14:02:46.680Z,-0.89
2022-11-19T14:06:12.751Z,-0.67
2022-11-19T14:09:21.613Z,-0.71
2022-11-19T14:11:57.615Z,-1.03
2022-11-19T14:15:17.579Z,-0.84
2022-11-19T14:18:35.612Z,-0.90
2022-11-19T14:21:43.532Z,-0.64
2022-11-19T14:24:44.473Z,-1.02
2022-11-19T14:27:21.079Z,-0.78
2022-11-19T14:29:48.021Z,-0.77
2022-11-19T14:32:14.880Z,-0.98
2022-11-19T14:35:08.963Z,-1.18
2022-11-19T14:37:48.771Z,-0.77
2022-11-19T14:40:21.226Z,-0.71
2022-11-19T14:43:18.677Z,-1.11
2022-11-19T14:46:08.747Z,-0.68
2022-11-19T14:48:41.826Z,-0.61
2022-11-19T14:51:29.651Z,-0.50
2022-11-19T14:54:13.596Z,-0.61
2022-11-19T14:56:46.180Z,-0.22
2022-11-19T14:59:16.063Z,-0.34
2022-11-19T15:02:25.695Z,-0.74
2022-11-19T15:04:55.859Z,-0.64
2022-11-19T15:07:33.756Z,-0.57
2022-11-19T15:10:10.243Z,-0.48
2022-11-19T15:12:43.420Z,-0.76
2022-11-19T15:15:22.468Z,-0.36
2022-11-19T15:18:41.495Z,-0.50
2022-11-19T15:21:48.035Z,-0.51
2022-11-19T15:24:48.581Z,-0.70
2022-11-19T15:27:45.774Z,-0.44
2022-11-19T15:30:16.968Z,-0.51
2022-11-19T15:33:08.031Z,-0.50
2022-11-19T15:36:04.930Z,-0.63
2022-11-19T15:38:40.613Z,-0.58
2022-11-19T15:41:14.551Z,-0.69
2022-11-19T15:43:51.844Z,-0.48
2022-11-19T15:46:42.872Z,-0.32
2022-11-19T15:49:25.078Z,-0.73
2022-11-19T15:52:16.059Z,-0.64
2022-11-19T15:54:45.056Z,-0.26
2022-11-19T15:57:26.219Z,-0.56
2022-11-19T16:00:01.333Z,-0.33
2022-11-19T16:02:41.628Z,-0.80
2022-11-19T16:05:18.445Z,-0.54
2022-11-19T16:07:48.739Z,-0.63
2022-11-19T16:10:37.273Z,-0.34
2022-11-19T16:13:42.922Z,-0.69
2022-11-19T16:16:40.000Z,-0.46
2022-11-19T16:19:07.052Z,-0.23
2022-11-19T16:21:40.033Z,-0.27
2022-11-19T16:24:31.988Z,-0.33
2022-11-19T16:27:02.942Z,-0.43
2022-11-19T16:29:42.458Z,-0.66
2022-11-19T16:32:17.108Z,-0.42
2022-11-19T16:34:44.783Z,-0.04
2022-11-19T16:37:13.981Z,-0.40
2022-11-19T16:39:43.663Z,-0.17
2022-11-19T16:42:18.378Z,-0.05
2022-11-19T16:44:53.453Z,0.02
2022-11-19T16:47:35.899Z,0.03
2022-11-19T16:50:27.558Z,-0.47
2022-11-19T16:52:59.326Z,-0.48
2022-11-19T16:55:26.223Z,-0.18
2022-11-19T16:58:00.590Z,-0.35
2022-11-19T17:00:38.361Z,-0.56
2022-11-19T17:03:29.196Z,-0.14
2022-11-19T17:05:58.073Z,-0.10
2022-11-19T17:08:34.820Z,-0.22
2022-11-19T17:12:00.112Z,-0.16
2022-11-19T17:14:36.407Z,-0.09
2022-11-19T17:17:04.192Z,-0.30
2022-11-19T17:19:38.441Z,-0.26
2022-11-19T17:22:21.859Z,-0.18
2022-11-19T17:24:51.777Z,-0.09
2022-11-19T17:27:54.750Z,-0.21
2022-11-19T17:30:32.043Z,-0.20
2022-11-19T17:33:04.997Z,-0.35
2022-11-19T17:35:42.745Z,-0.18
2022-11-19T17:38:31.250Z,0.16
2022-11-19T17:41:01.425Z,-0.06
2022-11-19T17:43:55.573Z,0.05
2022-11-19T17:46:25.755Z,-0.05
2022-11-19T17:48:56.947Z,0.25
2022-11-19T17:51:26.033Z,0.33
2022-11-19T17:53:56.590Z,0.07
2022-11-19T17:56:30.356Z,-0.03
2022-11-19T17:58:59.707Z,-0.03
2022-11-19T18:01:27.240Z,0.03
2022-11-19T18:03:54.341Z,0.18
2022-11-19T18:06:23.933Z,-0.03
2022-11-19T18:08:54.150Z,-0.01
2022-11-19T18:11:25.246Z,0.40
2022-11-19T18:13:59.364Z,-0.10
2022-11-19T18:16:34.077Z,0.11
2022-11-19T18:19:01.356Z,0.09
2022-11-19T18:21:28.458Z,0.00
2022-11-19T18:23:55.603Z,-0.12
2022-11-19T18:26:23.649Z,0.23
2022-11-19T18:28:52.997Z,0.23
2022-11-19T18:31:26.753Z,0.21
2022-11-19T18:33:56.127Z,0.05
2022-11-19T18:36:25.168Z,0.03
2022-11-19T18:38:53.139Z,-0.13
2022-11-19T18:41:20.379Z,0.00
2022-11-19T18:44:08.459Z,0.10
2022-11-19T18:46:37.893Z,0.27
2022-11-19T18:49:04.937Z,0.27
2022-11-19T18:51:32.645Z,0.29
2022-11-19T18:53:59.745Z,0.42
2022-11-19T18:56:26.999Z,0.51
2022-11-19T18:58:54.203Z,0.10
2022-11-19T19:01:24.106Z,0.42
2022-11-19T19:03:52.664Z,0.21
2022-11-19T19:06:23.366Z,0.27
2022-11-19T19:08:50.652Z,0.63
2022-11-19T19:11:36.537Z,0.53
2022-11-19T19:14:06.158Z,0.33
2022-11-19T19:16:35.657Z,0.37
2022-11-19T19:19:04.019Z,0.53
2022-11-19T19:21:31.258Z,0.77
2022-11-19T19:24:05.307Z,0.59
2022-11-19T19:26:32.384Z,0.52
2022-11-19T19:28:59.445Z,0.74
2022-11-19T19:31:26.519Z,0.51
2022-11-19T19:33:53.897Z,0.71
2022-11-19T19:36:24.741Z,0.46
2022-11-19T19:38:51.755Z,0.30
2022-11-19T19:41:22.251Z,0.08
2022-11-19T19:43:49.896Z,0.16
2022-11-19T19:46:19.345Z,0.14
2022-11-19T19:48:51.951Z,0.00
2022-11-19T19:51:21.601Z,0.15
2022-11-19T19:53:49.382Z,0.33
2022-11-19T19:56:26.414Z,-0.13
2022-11-19T19:58:53.970Z,-0.20
2022-11-19T20:01:24.663Z,0.44
2022-11-19T20:04:00.519Z,0.28
2022-11-19T20:06:30.232Z,0.26
2022-11-19T20:08:57.509Z,0.18
2022-11-19T20:11:26.356Z,-0.12
2022-11-19T20:13:56.074Z,-0.07
2022-11-19T20:16:31.871Z,0.05
2022-11-19T20:19:00.888Z,0.39
2022-11-19T20:21:31.821Z,0.44
2022-11-19T20:23:58.969Z,0.31
2022-11-19T20:26:29.339Z,0.45
2022-11-19T20:29:02.415Z,-0.23
2022-11-19T20:31:30.707Z,0.37
2022-11-19T20:34:00.594Z,0.55
2022-11-19T20:36:30.757Z,0.65
2022-11-19T20:38:57.812Z,0.95
2022-11-19T20:41:44.772Z,0.40
2022-11-19T20:44:20.662Z,0.43
2022-11-19T20:46:59.054Z,0.63
2022-11-19T20:49:30.068Z,0.63
2022-11-19T20:51:57.401Z,0.57
2022-11-19T20:54:27.988Z,0.36
2022-11-19T20:56:56.632Z,0.31
2022-11-19T20:59:26.261Z,0.38
2022-11-19T21:01:55.278Z,-0.05
2022-11-19T21:04:24.799Z,-0.05
2022-11-19T21:06:53.997Z,0.45
2022-11-19T21:09:22.011Z,0.19
2022-11-19T21:11:49.354Z,0.36
2022-11-19T21:14:16.444Z,0.53
2022-11-19T21:16:46.347Z,0.46
2022-11-19T21:19:14.425Z,0.70
2022-11-19T21:21:41.939Z,0.58
2022-11-19T21:24:12.188Z,0.76
2022-11-19T21:26:39.813Z,0.23
2022-11-19T21:29:06.954Z,0.19
2022-11-19T21:31:42.743Z,0.30
2022-11-19T21:34:20.487Z,0.33
2022-11-19T21:36:48.645Z,0.16
2022-11-19T21:39:17.451Z,0.57
2022-11-19T21:41:45.198Z,0.61
2022-11-19T21:44:20.977Z,0.50
2022-11-19T21:46:50.980Z,0.52
2022-11-19T21:49:18.816Z,0.46
2022-11-19T21:51:46.170Z,0.35
2022-11-19T21:54:13.206Z,0.58
2022-11-19T21:56:40.372Z,0.52
2022-11-19T21:59:07.623Z,0.22
2022-11-19T22:01:37.188Z,0.22
2022-11-19T22:04:07.565Z,0.04
2022-11-19T22:06:34.837Z,0.28
2022-11-19T22:09:02.569Z,0.25
2022-11-19T22:11:34.097Z,0.49
2022-11-19T22:14:04.243Z,0.28
2022-11-19T22:16:34.928Z,0.38
2022-11-19T22:19:01.994Z,-0.02
2022-11-19T22:21:29.503Z,0.06
2022-11-19T22:23:57.040Z,0.26
2022-11-19T22:26:26.627Z,0.32
2022-11-19T22:28:56.269Z,0.24
2022-11-19T22:31:24.551Z,0.32
2022-11-19T22:33:52.194Z,0.30
2022-11-19T22:36:21.619Z,0.31
2022-11-19T22:38:49.137Z,0.00
2022-11-19T22:41:19.652Z,0.16
2022-11-19T22:43:47.105Z,0.17
2022-11-19T22:46:14.875Z,0.29
2022-11-19T22:48:42.460Z,0.59
2022-11-19T22:51:16.840Z,0.24
2022-11-19T22:53:44.743Z,0.16
2022-11-19T22:56:15.251Z,0.51
2022-11-19T22:58:42.896Z,0.53
2022-11-19T23:01:21.699Z,0.34
2022-11-19T23:03:48.968Z,0.63
2022-11-19T23:06:17.007Z,0.70
2022-11-19T23:08:44.758Z,0.54
2022-11-19T23:11:16.772Z,0.68
2022-11-19T23:13:44.970Z,0.06
2022-11-19T23:16:15.953Z,0.18
2022-11-19T23:18:53.519Z,0.09
2022-11-19T23:21:28.077Z,0.14
2022-11-19T23:23:56.032Z,0.51
2022-11-19T23:26:26.607Z,0.21
2022-11-19T23:28:54.537Z,0.07
2022-11-19T23:31:31.493Z,-0.13
2022-11-19T23:33:59.660Z,0.18
2022-11-19T23:36:30.684Z,0.30
2022-11-19T23:38:58.920Z,0.30
2022-11-19T23:41:26.768Z,0.33
2022-11-19T23:43:56.757Z,0.37
2022-11-19T23:46:30.230Z,0.38
2022-11-19T23:48:58.796Z,0.37
2022-11-19T23:51:38.341Z,0.13
2022-11-19T23:54:08.389Z,0.04
2022-11-19T23:56:36.357Z,0.28
2022-11-19T23:59:06.364Z,0.45
